, MT

(GMT )
West Yellowstone

Weather History for KWYS - July, 2014

Change the Weather History Date:

Monday, July 7, 2014

  Actual Average Record
Temperature  
Mean Temperature 59 °F -  
Max Temperature 77 °F 76 °F 80 °F (2011)
Min Temperature 41 °F 40 °F 28 °F (2010)
Degree Days  
Heating Degree Days 6    
Growing Degree Days 9 (Base 50)    
Moisture  
Dew Point 40 °F    
Average Humidity 48    
Maximum Humidity 93    
Minimum Humidity 22    
Precipitation  
Precipitation 0.00 in - - ()
Sea Level Pressure  
Sea Level Pressure 30.25 in    
Wind  
Wind Speed 3 mph (NNE)    
Max Wind Speed 14 mph    
Max Gust Speed 18 mph    
Visibility 10 miles    
Events Rain    
Averages and records for this station are not official NWS values.
T = Trace of Precipitation, MM = Missing Value Source: NWS Daily Summary

Daily Weather History Graph

Daily Weather History Graph

Search for Another Location

Airport or City:

Trip Planner

Search our weather history database for the weather conditions in past years. The results will help you decide how hot, cold, wet, or windy it might be!

Date:

Astronomy

Jul. 07, 2014 Rise Set
Actual Time 5:46 AM MDT 9:11 PM MDT
Civil Twilight 5:10 AM MDT 9:48 PM MDT
Nautical Twilight 4:22 AM MDT 10:35 PM MDT
Astronomical Twilight 3:21 AM MDT 11:35 PM MDT
Moon 4:12 PM MDT (7/7) 1:50 AM MDT (7/7)
Length of Visible Light 16h 37m
Length of Day
15h 25m
Waxing Gibbous, 73% of the Moon is Illuminated
Jul 7
Waxing Gibbous
Jul 12
Full
Jul 18
Last Quarter
Jul 26
New
Aug 3
First Quarter

Hourly Weather History & Observations

Time (MDT) Temp. Windchill Dew Point Humidity Pressure Visibility Wind Dir Wind Speed Gust Speed Precip Events Conditions
12:10 AM 57.2 °F - 44.6 °F 63% 30.23 in 10.0 mi Calm Calm - N/A   Scattered Clouds
12:30 AM 55.4 °F - 44.6 °F 67% 30.23 in 10.0 mi Calm Calm - N/A   Partly Cloudy
12:50 AM 55.4 °F - 44.6 °F 67% 30.23 in 10.0 mi Calm Calm - N/A   Mostly Cloudy
1:10 AM 55.4 °F - 44.6 °F 67% 30.23 in 10.0 mi NE 3.5 mph - N/A   Overcast
1:30 AM 55.4 °F - 46.4 °F 72% 30.23 in 10.0 mi SW 4.6 mph - N/A   Overcast
1:50 AM 55.4 °F - 44.6 °F 67% 30.22 in 10.0 mi Calm Calm - N/A   Mostly Cloudy
2:10 AM 53.6 °F - 44.6 °F 72% 30.22 in 10.0 mi Calm Calm - N/A   Partly Cloudy
2:30 AM 50.0 °F - 44.6 °F 82% 30.22 in 10.0 mi Calm Calm - N/A   Clear
2:50 AM 50.0 °F - 44.6 °F 82% 30.22 in 10.0 mi Calm Calm - N/A   Clear
3:10 AM 48.2 °F - 42.8 °F 82% 30.22 in 10.0 mi Calm Calm - N/A   Clear
3:30 AM 46.4 °F - 42.8 °F 87% 30.22 in 10.0 mi Calm Calm - N/A   Clear
3:50 AM 46.4 °F - 41.0 °F 81% 30.22 in 10.0 mi Calm Calm - N/A   Clear
4:10 AM 46.4 °F - 41.0 °F 81% 30.22 in 10.0 mi Calm Calm - N/A   Clear
4:30 AM 44.6 °F - 41.0 °F 87% 30.22 in 10.0 mi Calm Calm - N/A   Clear
4:50 AM 44.6 °F - 41.0 °F 87% 30.22 in 10.0 mi Calm Calm - N/A   Clear
5:10 AM 42.8 °F - 41.0 °F 93% 30.23 in 10.0 mi Calm Calm - N/A   Clear
5:30 AM 42.8 °F - 39.2 °F 87% 30.24 in 10.0 mi Calm Calm - N/A   Clear
5:50 AM 41.0 °F - 39.2 °F 93% 30.25 in 10.0 mi Calm Calm - N/A   Clear
6:10 AM 42.8 °F - 39.2 °F 87% 30.25 in 10.0 mi Calm Calm - N/A   Clear
6:30 AM 44.6 °F 43.1 °F 41.0 °F 87% 30.26 in 10.0 mi SSW 3.5 mph - N/A   Clear
6:50 AM 48.2 °F - 42.8 °F 82% 30.26 in 10.0 mi Calm Calm - N/A   Clear
7:10 AM 51.8 °F - 44.6 °F 76% 30.27 in 10.0 mi Calm Calm - N/A   Clear
7:30 AM 55.4 °F - 44.6 °F 67% 30.27 in 10.0 mi Calm Calm - N/A   Clear
7:50 AM 59.0 °F - 42.8 °F 55% 30.27 in 10.0 mi Calm Calm - N/A   Clear
8:10 AM 60.8 °F - 41.0 °F 48% 30.28 in 10.0 mi Calm Calm - N/A   Clear
8:30 AM 62.6 °F - 41.0 °F 45% 30.28 in 10.0 mi NE 3.5 mph - N/A   Clear
8:50 AM 66.2 °F - 39.2 °F 37% 30.28 in 10.0 mi NNE 10.4 mph - N/A   Clear
9:10 AM 66.2 °F - 39.2 °F 37% 30.29 in 10.0 mi NE 12.7 mph 18.4 mph N/A   Clear
9:30 AM 68.0 °F - 39.2 °F 35% 30.29 in 10.0 mi NNE 11.5 mph 17.3 mph N/A   Clear
9:50 AM 68.0 °F - 37.4 °F 33% 30.29 in 10.0 mi East 8.1 mph - N/A   Clear
10:10 AM 68.0 °F - 37.4 °F 33% 30.28 in 10.0 mi ESE 4.6 mph - N/A   Clear
10:30 AM 69.8 °F - 39.2 °F 33% 30.28 in 10.0 mi East 4.6 mph - N/A   Clear
10:50 AM 69.8 °F - 37.4 °F 31% 30.28 in 10.0 mi NNE 6.9 mph - N/A   Clear
11:10 AM 71.6 °F - 39.2 °F 31% 30.28 in 10.0 mi North 5.8 mph - N/A   Clear
11:30 AM 71.6 °F - 37.4 °F 29% 30.28 in 10.0 mi SSE 5.8 mph - N/A   Clear
11:50 AM 71.6 °F - 37.4 °F 29% 30.28 in 10.0 mi NW 6.9 mph - N/A   Clear
12:10 PM 73.4 °F - 35.6 °F 25% 30.27 in 10.0 mi West 3.5 mph - N/A   Clear
12:30 PM 73.4 °F - 35.6 °F 25% 30.27 in 10.0 mi NNE 9.2 mph - N/A   Clear
12:50 PM 75.2 °F - 35.6 °F 24% 30.27 in 10.0 mi North 6.9 mph - N/A   Clear
1:10 PM 73.4 °F - 37.4 °F 27% 30.27 in 10.0 mi WNW 5.8 mph - N/A   Clear
1:30 PM 73.4 °F - 37.4 °F 27% 30.27 in 10.0 mi North 5.8 mph - N/A   Clear
1:50 PM 75.2 °F - 37.4 °F 25% 30.26 in 10.0 mi South 5.8 mph - N/A   Clear
2:30 PM 77.0 °F - 35.6 °F 22% 30.25 in 10.0 mi SW 5.8 mph - N/A   Mostly Cloudy
2:50 PM 75.2 °F - 35.6 °F 24% 30.25 in 10.0 mi ENE 3.5 mph - N/A   Scattered Clouds
3:10 PM 77.0 °F - 37.4 °F 24% 30.25 in 10.0 mi NE 3.5 mph - N/A   Partly Cloudy
3:30 PM 77.0 °F - 35.6 °F 22% 30.25 in 10.0 mi NNW 5.8 mph - N/A   Clear
3:50 PM 77.0 °F - 37.4 °F 24% 30.25 in 10.0 mi NNE 5.8 mph - N/A Rain Light Rain
4:10 PM 77.0 °F - 37.4 °F 24% 30.25 in 10.0 mi NNE 4.6 mph 18.4 mph N/A   Mostly Cloudy
4:30 PM 77.0 °F - 39.2 °F 26% 30.25 in 10.0 mi North 10.4 mph - N/A   Clear
4:50 PM 75.2 °F - 39.2 °F 27% 30.25 in 10.0 mi North 9.2 mph - N/A   Clear
5:10 PM 77.0 °F - 39.2 °F 26% 30.24 in 10.0 mi North 5.8 mph - N/A   Clear
5:30 PM 77.0 °F - 39.2 °F 26% 30.24 in 10.0 mi NNE 9.2 mph - N/A   Clear
5:50 PM 77.0 °F - 39.2 °F 26% 30.24 in 10.0 mi NE 11.5 mph - N/A   Clear
6:10 PM 77.0 °F - 37.4 °F 24% 30.24 in 10.0 mi NNW 8.1 mph - N/A   Partly Cloudy
6:30 PM 75.2 °F - 37.4 °F 25% 30.23 in 10.0 mi North 9.2 mph - N/A   Clear
6:50 PM 75.2 °F - 37.4 °F 25% 30.24 in 10.0 mi North 9.2 mph - N/A   Clear
7:10 PM 75.2 °F - 37.4 °F 25% 30.24 in 10.0 mi North 6.9 mph - N/A   Clear
7:30 PM 73.4 °F - 37.4 °F 27% 30.24 in 10.0 mi NNE 11.5 mph - N/A   Clear
7:50 PM 73.4 °F - 37.4 °F 27% 30.24 in 10.0 mi NNE 11.5 mph - N/A   Clear
8:10 PM 73.4 °F - 37.4 °F 27% 30.24 in 10.0 mi NE 13.8 mph - N/A   Clear
8:30 PM 71.6 °F - 39.2 °F 31% 30.24 in 10.0 mi NE 10.4 mph 17.3 mph N/A   Clear
8:50 PM 69.8 °F - 39.2 °F 33% 30.25 in 10.0 mi ENE 9.2 mph - N/A   Clear
9:10 PM 68.0 °F - 39.2 °F 35% 30.25 in 10.0 mi NE 8.1 mph - N/A   Clear
9:30 PM 66.2 °F - 39.2 °F 37% 30.26 in 10.0 mi East 5.8 mph - N/A   Clear
9:50 PM 62.6 °F - 41.0 °F 45% 30.27 in 10.0 mi Calm Calm - N/A   Clear
10:10 PM 57.2 °F - 41.0 °F 55% 30.28 in 10.0 mi Calm Calm - N/A   Clear
10:30 PM 55.4 °F - 41.0 °F 58% 30.28 in 10.0 mi Calm Calm - N/A   Clear
10:50 PM 53.6 °F - 41.0 °F 62% 30.28 in 10.0 mi Calm Calm - N/A   Clear
11:10 PM 53.6 °F - 41.0 °F 62% 30.28 in 10.0 mi NNE 9.2 mph - N/A   Clear
11:30 PM 57.2 °F - 41.0 °F 55% 30.28 in 10.0 mi NE 3.5 mph - N/A   Clear
11:50 PM 53.6 °F - 41.0 °F 62% 30.29 in 10.0 mi SW 3.5 mph - N/A   Clear